Time;durP1;ratioP1;P1;durP2;ratioP2;P2;SDS_P1;SDS_P2;PMS_P1;PMS_P2;Temp;Humidity;BMP_temperature;BMP_pressure;BME280_temperature;BME280_humidity;BME280_pressure;Samples;Min_cycle;Max_cycle;Signal;HPM_P1;HPM_P2
2022/05/04 00:00:50;;;;;;;12.18;8.27;;;12.90;67.00;;;8.91;86.30;95453.00;5051174;28;20049;-57
2022/05/04 00:03:16;;;;;;;10.98;8.77;;;12.90;66.30;;;8.90;86.72;95446.88;5050565;28;20029;-56
2022/05/04 00:05:42;;;;;;;13.80;8.23;;;12.90;66.50;;;8.92;86.80;95449.28;5038515;28;20029;-57
2022/05/04 00:08:08;;;;;;;11.02;8.27;;;12.90;66.60;;;8.96;86.80;95448.50;5050554;28;20087;-57
2022/05/04 00:10:37;;;;;;;8.65;7.72;;;12.90;66.80;;;8.97;86.80;95452.75;5053154;28;20491;-57
2022/05/04 00:13:06;;;;;;;10.93;8.30;;;12.90;66.90;;;9.00;86.39;95446.94;5055141;28;20036;-57
2022/05/04 00:15:36;;;;;;;12.88;8.98;;;12.90;66.90;;;9.00;86.32;95449.59;5040652;28;20443;-57
2022/05/04 00:18:02;;;;;;;10.15;8.55;;;12.90;66.80;;;9.01;86.14;95453.03;5034152;28;20116;-60
2022/05/04 00:20:27;;;;;;;10.88;9.10;;;12.90;66.70;;;8.98;86.23;95443.72;5017273;28;20109;-60
2022/05/04 00:22:56;;;;;;;11.23;8.27;;;13.00;66.70;;;9.00;86.42;95438.97;5033956;28;20479;-57
2022/05/04 00:25:37;;;;;;;11.20;8.55;;;12.90;66.60;;;9.02;86.18;95438.69;5017326;28;20419;-57
2022/05/04 00:28:04;;;;;;;12.82;9.68;;;13.00;67.00;;;9.00;86.44;95438.16;5035038;28;20215;-57
2022/05/04 00:30:33;;;;;;;10.35;8.48;;;13.00;66.70;;;8.99;86.49;95437.38;5033779;28;20384;-57
2022/05/04 00:33:00;;;;;;;11.75;9.27;;;13.00;66.90;;;9.01;86.27;95437.91;5034901;28;20030;-57
2022/05/04 00:35:35;;;;;;;10.90;9.05;;;13.00;66.90;;;9.05;86.30;95440.84;5034913;28;20025;-57
2022/05/04 00:38:07;;;;;;;12.05;9.30;;;13.00;67.10;;;9.03;86.41;95441.09;5033680;28;20119;-57
2022/05/04 00:40:33;;;;;;;12.30;9.13;;;13.00;66.90;;;9.04;86.54;95437.38;5034794;28;20049;-57
2022/05/04 00:43:01;;;;;;;11.68;9.32;;;13.00;66.90;;;9.04;86.54;95432.06;5034945;28;20026;-57
2022/05/04 00:45:31;;;;;;;12.85;9.70;;;13.10;67.10;;;9.09;86.57;95435.78;5034786;28;20065;-57
2022/05/04 00:48:03;;;;;;;13.05;10.10;;;13.00;67.00;;;9.12;86.80;95441.41;5033662;28;20053;-54
2022/05/04 00:50:46;;;;;;;12.77;9.55;;;13.00;67.20;;;9.15;87.00;95438.25;5033459;28;20025;-53
2022/05/04 00:53:13;;;;;;;14.48;10.05;;;13.10;67.30;;;9.15;86.84;95434.75;5033494;28;20057;-54
2022/05/04 00:55:39;;;;;;;12.40;10.60;;;13.10;67.20;;;9.17;86.77;95438.78;5033413;28;20026;-53
2022/05/04 01:00:51;;;;;;;14.45;10.23;;;13.00;67.10;;;9.14;86.35;95433.97;5033254;28;20048;-52
2022/05/04 01:03:18;;;;;;;13.13;10.52;;;13.00;67.10;;;9.13;86.71;95431.59;5033362;28;20340;-51
2022/05/04 01:05:43;;;;;;;13.32;10.70;;;13.00;67.20;;;9.13;86.92;95442.22;5032574;28;20033;-55
2022/05/04 01:08:12;;;;;;;14.88;10.65;;;13.10;67.30;;;9.11;86.82;95445.13;5017912;28;20029;-50
2022/05/04 01:10:38;;;;;;;13.75;10.32;;;13.00;67.30;;;9.09;86.68;95435.78;5050409;28;20053;-50
2022/05/04 01:13:10;;;;;;;12.68;10.07;;;13.00;67.30;;;9.02;86.58;95436.84;5034073;28;20064;-50
2022/05/04 01:15:42;;;;;;;12.73;10.38;;;13.00;67.60;;;8.99;86.62;95433.88;5032976;28;20060;-51
2022/05/04 01:18:07;;;;;;;13.32;9.73;;;12.90;67.50;;;8.95;86.95;95440.78;5038898;28;20029;-53
2022/05/04 01:20:33;;;;;;;13.55;10.43;;;12.90;67.50;;;8.91;86.73;95448.47;5034050;28;20026;-51
2022/05/04 01:23:05;;;;;;;24.90;11.35;;;12.90;67.50;;;8.88;86.73;95450.84;5032843;28;20057;-55
2022/05/04 01:25:40;;;;;;;13.70;10.38;;;12.90;67.50;;;8.84;87.06;95449.75;5035582;28;20125;-52
2022/05/04 01:28:06;;;;;;;15.13;10.68;;;12.80;67.60;;;8.78;86.74;95446.28;5034023;28;20534;-53
2022/05/04 01:30:32;;;;;;;15.30;11.18;;;12.80;68.20;;;8.77;87.24;95450.78;5032466;28;20033;-53
2022/05/04 01:32:59;;;;;;;16.67;12.15;;;12.80;67.50;;;8.75;87.11;95449.44;5016260;28;20032;-50
2022/05/04 01:35:43;;;;;;;14.93;11.65;;;12.70;67.60;;;8.71;86.76;95448.34;5016184;28;20468;-50
2022/05/04 01:38:12;;;;;;;14.50;10.43;;;12.60;67.70;;;8.64;86.71;95451.22;5032721;28;20033;-52
2022/05/04 01:40:38;;;;;;;16.48;11.45;;;12.60;68.30;;;8.58;86.39;95454.88;5046878;28;20025;-49
2022/05/04 01:43:03;;;;;;;20.20;12.43;;;12.60;67.60;;;8.48;86.41;95441.53;5042778;28;20561;-52
2022/05/04 01:45:32;;;;;;;16.42;12.15;;;12.50;67.50;;;8.44;86.93;95454.53;5033582;28;20033;-51
2022/05/04 01:48:00;;;;;;;17.65;12.13;;;12.40;67.60;;;8.37;87.03;95451.25;5033385;28;20116;-55
2022/05/04 01:50:29;;;;;;;17.45;12.55;;;12.30;67.70;;;8.30;88.00;95451.47;5033505;28;20033;-52
2022/05/04 01:52:58;;;;;;;21.92;11.80;;;12.30;67.80;;;8.28;87.83;95461.53;5032142;28;20044;-51
2022/05/04 01:55:27;;;;;;;13.73;11.02;;;12.20;68.00;;;8.23;87.24;95461.47;5033427;28;20499;-50
2022/05/04 01:57:53;;;;;;;17.17;11.27;;;12.20;68.00;;;8.15;87.25;95461.97;5032114;28;20052;-50
2022/05/04 02:00:19;;;;;;;17.67;12.20;;;12.10;67.90;;;8.06;87.88;95466.13;5041918;22;20057;-49
2022/05/04 02:02:52;;;;;;;15.23;11.00;;;12.00;67.90;;;8.01;87.82;95458.91;5041296;28;20523;-49
2022/05/04 02:05:18;;;;;;;19.52;11.50;;;11.90;68.00;;;7.93;88.33;95462.03;5014352;28;20476;-50
2022/05/04 02:07:45;;;;;;;19.13;12.02;;;11.90;68.00;;;7.89;88.29;95458.25;5013327;28;20507;-47
2022/05/04 02:10:17;;;;;;;16.23;11.45;;;11.80;68.10;;;7.79;87.95;95456.28;5018975;28;20026;-48
2022/05/04 02:12:43;;;;;;;16.30;11.35;;;11.80;68.40;;;7.71;87.71;95458.56;5012220;28;20397;-48
2022/05/04 02:15:10;;;;;;;16.27;11.35;;;11.70;68.30;;;7.60;87.95;95455.03;5011958;28;20026;-47
2022/05/04 02:17:42;;;;;;;16.73;11.93;;;11.60;68.40;;;7.55;87.98;95460.25;5014164;28;20072;-49
2022/05/04 02:20:09;;;;;;;16.02;11.27;;;11.50;68.50;;;7.48;88.25;95462.31;5013088;28;20129;-50
2022/05/04 02:22:40;;;;;;;15.48;11.32;;;11.50;68.50;;;7.42;88.37;95462.25;5013098;28;20084;-49
2022/05/04 02:25:06;;;;;;;14.68;10.70;;;11.40;68.60;;;7.38;88.61;95458.50;5013062;28;20030;-47
2022/05/04 02:27:35;;;;;;;17.17;11.23;;;11.40;68.70;;;7.33;88.42;95457.63;5013361;28;20384;-48
2022/05/04 02:30:04;;;;;;;16.17;11.32;;;11.40;68.80;;;7.28;88.56;95461.03;5012891;28;20570;-47
2022/05/04 02:32:30;;;;;;;17.60;11.73;;;11.40;68.90;;;7.26;88.24;95462.31;5011328;28;20038;-47
2022/05/04 02:37:55;;;;;;;17.38;11.65;;;11.30;68.90;;;7.23;89.11;95468.09;5013260;28;20550;-47
2022/05/04 02:40:30;;;;;;;21.67;12.85;;;11.20;68.90;;;7.18;89.41;95463.56;5027574;28;20072;-50
2022/05/04 02:43:04;;;;;;;18.90;12.52;;;11.20;69.20;;;7.17;89.63;95462.72;5012994;28;20128;-49
2022/05/04 02:45:41;;;;;;;17.38;12.32;;;11.20;69.10;;;7.16;89.40;95461.13;5012736;28;20076;-47
2022/05/04 02:48:08;;;;;;;19.33;12.82;;;11.20;69.40;;;7.17;89.43;95465.38;5011440;28;20033;-49
2022/05/04 02:50:39;;;;;;;20.80;14.02;;;11.10;69.20;;;7.17;89.89;95465.38;5012589;28;20080;-48
2022/05/04 02:53:09;;;;;;;18.20;12.77;;;11.20;69.60;;;7.19;89.98;95454.56;5011399;28;20034;-47
2022/05/04 02:55:40;;;;;;;18.08;12.30;;;11.20;69.70;;;7.18;89.73;95459.06;5012683;28;20084;-47
2022/05/04 02:58:06;;;;;;;17.35;12.10;;;11.20;69.70;;;7.16;89.85;95457.69;5011574;28;20029;-48
2022/05/04 03:00:32;;;;;;;18.25;13.07;;;11.10;69.60;;;7.18;90.15;95458.25;5011171;28;20492;-48
2022/05/04 03:03:01;;;;;;;19.38;13.20;;;11.10;69.60;;;7.19;90.16;95459.84;5046669;28;20029;-50
2022/05/04 03:05:41;;;;;;;18.40;12.82;;;11.20;69.80;;;7.18;90.00;95464.34;5032293;28;20030;-49
2022/05/04 03:08:13;;;;;;;16.92;12.52;;;11.20;70.00;;;7.18;89.80;95455.59;5032171;28;20037;-48
2022/05/04 03:13:31;;;;;;;18.45;13.10;;;11.20;69.70;;;7.16;89.72;95455.03;5011374;28;20507;-49
2022/05/04 03:16:03;;;;;;;21.35;12.98;;;11.10;69.70;;;7.16;89.70;95452.41;5011081;28;20117;-50
2022/05/04 03:18:29;;;;;;;16.52;12.13;;;11.10;69.90;;;7.13;89.74;95453.69;5025796;28;20424;-51
2022/05/04 03:20:55;;;;;;;21.50;13.88;;;11.10;69.70;;;7.14;90.30;95455.28;5010514;28;20037;-48
2022/05/04 03:23:24;;;;;;;26.83;14.45;;;11.10;69.90;;;7.18;90.51;95458.25;5009808;28;20034;-50
2022/05/04 03:25:50;;;;;;;21.55;12.77;;;11.10;70.10;;;7.17;90.16;95454.78;5011684;28;20481;-51
2022/05/04 03:28:15;;;;;;;21.00;14.13;;;11.10;70.00;;;7.15;90.34;95456.09;5012266;28;20040;-49
2022/05/04 03:30:41;;;;;;;24.45;16.17;;;11.10;70.00;;;7.16;90.68;95457.69;5011065;28;20034;-50
2022/05/04 03:33:07;;;;;;;22.13;14.57;;;11.10;70.20;;;7.19;90.67;95458.00;5012311;28;20033;-50
2022/05/04 03:35:32;;;;;;;22.60;13.80;;;11.10;70.20;;;7.17;90.30;95462.72;5018522;28;20021;-49
2022/05/04 03:37:58;;;;;;;22.90;14.82;;;11.10;70.20;;;7.15;90.42;95461.41;5031937;28;20056;-52
2022/05/04 03:40:27;;;;;;;28.02;17.10;;;11.10;70.30;;;7.13;90.80;95463.47;5031855;28;20033;-52
2022/05/04 03:42:53;;;;;;;25.20;15.65;;;11.00;70.30;;;7.12;90.61;95461.88;5030618;28;20029;-53
2022/05/04 03:45:28;;;;;;;27.08;16.23;;;11.00;70.40;;;7.10;90.45;95458.66;5033245;28;20553;-51
2022/05/04 03:48:02;;;;;;;25.48;16.00;;;11.00;70.50;;;7.06;90.55;95460.22;5050994;28;20076;-48
2022/05/04 03:50:27;;;;;;;26.90;16.70;;;11.00;70.40;;;7.04;90.70;95463.09;5035675;28;20033;-49
2022/05/04 03:52:59;;;;;;;27.17;17.92;;;11.00;70.50;;;7.03;90.89;95472.09;5035444;28;20048;-50
2022/05/04 03:55:27;;;;;;;26.60;16.20;;;11.00;70.70;;;7.02;90.95;95474.97;5035677;28;20064;-47
2022/05/04 03:57:53;;;;;;;31.23;18.00;;;11.00;70.70;;;7.00;91.13;95469.94;5035346;28;20431;-49
2022/05/04 04:00:25;;;;;;;31.45;18.73;;;10.90;70.70;;;7.01;91.18;95470.72;5033838;28;20052;-50
2022/05/04 04:02:54;;;;;;;28.10;18.60;;;11.00;71.00;;;7.02;91.17;95474.97;5034181;28;20033;-51
2022/05/04 04:05:19;;;;;;;29.55;17.70;;;10.90;70.90;;;7.02;91.04;95475.78;5032071;28;20030;-50
2022/05/04 04:07:47;;;;;;;30.70;17.33;;;10.90;70.80;;;7.00;90.74;95472.59;5015542;28;20038;-51
2022/05/04 04:10:13;;;;;;;28.95;17.88;;;10.90;70.80;;;6.97;90.51;95478.38;5028595;28;20380;-54
2022/05/04 04:12:42;;;;;;;32.72;18.58;;;10.90;70.70;;;6.90;90.75;95478.53;5030688;28;20084;-48
2022/05/04 04:15:08;;;;;;;32.40;19.40;;;10.90;70.80;;;6.90;91.01;95483.84;5014129;28;20030;-53
2022/05/04 04:17:34;;;;;;;25.42;16.27;;;10.90;70.80;;;6.89;90.80;95490.19;5015450;28;20022;-50
2022/05/04 04:22:44;;;;;;;27.58;17.02;;;10.90;70.70;;;6.82;90.36;95488.75;5015403;28;20037;-52
2022/05/04 04:25:12;;;;;;;32.03;18.10;;;10.90;70.60;;;6.79;90.30;95490.03;5015505;28;20029;-53
2022/05/04 04:27:38;;;;;;;29.88;17.77;;;10.80;70.60;;;6.79;90.40;95494.50;5015227;28;20030;-51
2022/05/04 04:30:04;;;;;;;29.92;17.30;;;10.80;70.60;;;6.76;90.28;95493.16;5015188;28;20033;-52
2022/05/04 04:32:30;;;;;;;36.85;19.20;;;10.80;70.50;;;6.74;90.52;95489.97;5014945;28;20037;-55
2022/05/04 04:35:11;;;;;;;30.13;19.10;;;10.90;70.60;;;6.75;90.60;95491.56;5013967;28;20026;-52
2022/05/04 04:37:42;;;;;;;37.17;20.75;;;10.80;70.70;;;6.77;90.56;95507.19;5013810;28;20029;-53
2022/05/04 04:40:09;;;;;;;35.03;21.30;;;10.90;70.60;;;6.78;90.93;95496.38;5015091;28;20048;-50
2022/05/04 04:42:34;;;;;;;37.25;20.77;;;10.90;70.70;;;6.80;90.94;95502.22;5015380;28;20082;-47
2022/05/04 04:45:00;;;;;;;40.05;21.85;;;10.90;70.70;;;6.87;91.22;95502.06;5014854;28;20072;-49
2022/05/04 04:47:30;;;;;;;37.47;22.15;;;10.90;70.80;;;6.94;91.50;95503.47;5013507;28;20038;-47
2022/05/04 04:50:08;;;;;;;42.25;23.67;;;11.00;71.00;;;7.02;91.63;95498.81;5030013;28;20034;-47
2022/05/04 04:52:34;;;;;;;44.35;22.55;;;11.10;71.20;;;7.08;92.02;95500.47;5014714;28;20042;-49
2022/05/04 04:55:00;;;;;;;40.97;22.33;;;11.20;71.10;;;7.14;92.08;95500.31;5014483;28;20144;-47
2022/05/04 04:57:25;;;;;;;43.00;23.17;;;11.20;71.20;;;7.21;92.02;95497.50;5014164;28;20022;-48
2022/05/04 04:59:51;;;;;;;37.05;20.83;;;11.30;71.30;;;7.30;92.03;95500.50;5029535;28;20115;-48
2022/05/04 05:02:19;;;;;;;41.13;21.95;;;11.50;71.30;;;7.36;91.80;95505.66;4986772;28;20114;-48
2022/05/04 05:04:48;;;;;;;35.00;20.50;;;11.50;71.20;;;7.43;91.41;95505.47;5049579;28;20021;-47
2022/05/04 05:07:13;;;;;;;41.35;21.80;;;11.70;71.20;;;7.54;91.36;95514.34;5033633;28;20029;-47
2022/05/04 05:09:39;;;;;;;34.92;20.52;;;11.80;71.10;;;7.60;91.44;95506.19;5029826;28;20040;-49
2022/05/04 05:12:05;;;;;;;41.97;22.25;;;11.90;71.00;;;7.71;91.39;95503.66;5029479;28;20397;-47
2022/05/04 05:17:18;;;;;;;33.38;20.42;;;12.10;71.10;;;7.92;91.59;95502.03;5014366;28;20053;-47
2022/05/04 05:19:46;;;;;;;35.58;21.15;;;12.30;71.00;;;8.01;91.46;95504.00;5012702;28;20022;-48
2022/05/04 05:22:12;;;;;;;36.20;21.90;;;12.40;71.00;;;8.10;91.42;95502.50;5020944;28;20387;-48
2022/05/04 05:24:38;;;;;;;33.65;21.77;;;12.50;71.00;;;8.25;91.56;95507.16;5013170;28;20029;-48
2022/05/04 05:27:06;;;;;;;33.67;20.80;;;12.60;70.90;;;8.35;91.39;95509.09;5025368;28;20117;-48
2022/05/04 05:29:38;;;;;;;32.53;20.50;;;12.80;70.90;;;8.48;91.23;95502.59;5024179;28;20438;-48
2022/05/04 05:32:08;;;;;;;36.20;22.30;;;12.90;70.80;;;8.58;91.22;95502.66;5016153;28;20026;-49
2022/05/04 05:34:34;;;;;;;37.40;23.27;;;13.00;71.60;;;8.73;91.10;95508.09;5032398;28;20037;-47
2022/05/04 05:37:01;;;;;;;34.72;22.85;;;13.20;70.70;;;8.80;90.90;95505.22;5033533;28;20032;-48
2022/05/04 05:39:27;;;;;;;28.50;19.88;;;13.30;70.70;;;8.94;90.80;95501.09;5015946;28;20108;-47
2022/05/04 05:41:53;;;;;;;28.15;18.92;;;13.50;70.60;;;9.08;90.80;95498.78;5032742;28;20124;-50
2022/05/04 05:44:24;;;;;;;28.73;20.33;;;13.60;70.40;;;9.24;90.70;95515.59;5032308;28;20021;-48
2022/05/04 05:46:50;;;;;;;27.40;20.60;;;13.80;70.50;;;9.37;90.62;95504.53;5049093;28;20470;-51
2022/05/04 05:49:16;;;;;;;28.05;19.50;;;13.90;70.20;;;9.53;90.55;95510.72;5033249;28;20112;-49
2022/05/04 05:51:42;;;;;;;25.27;16.45;;;14.10;70.20;;;9.69;90.26;95512.38;5048603;28;20059;-50
2022/05/04 05:54:08;;;;;;;18.92;14.75;;;14.30;70.10;;;9.84;90.15;95509.00;5031920;28;20112;-47
2022/05/04 05:56:39;;;;;;;19.23;13.90;;;14.50;69.90;;;10.01;89.54;95515.94;5033287;28;20459;-47
2022/05/04 05:59:05;;;;;;;16.65;12.93;;;14.70;69.80;;;10.15;89.31;95515.19;5045411;28;20029;-47
2022/05/04 06:01:30;;;;;;;14.75;11.65;;;14.90;69.40;;;10.32;88.77;95514.19;5018074;28;20075;-48
2022/05/04 06:03:56;;;;;;;15.05;11.32;;;15.10;69.10;;;10.48;88.50;95518.44;5026115;28;20030;-49
2022/05/04 06:06:22;;;;;;;14.55;11.70;;;15.20;68.60;;;10.64;87.99;95511.28;5030315;28;20033;-48
2022/05/04 06:09:00;;;;;;;12.35;10.73;;;15.50;68.30;;;10.81;87.14;95525.13;5028160;28;20040;-48
2022/05/04 06:11:25;;;;;;;12.10;10.20;;;15.70;67.80;;;10.84;84.10;95516.59;5046534;28;20033;-48
2022/05/04 06:13:57;;;;;;;11.57;10.13;;;15.90;67.40;;;10.99;83.77;95520.31;5045350;28;20029;-51
2022/05/04 06:16:25;;;;;;;12.45;9.65;;;16.10;66.80;;;11.19;83.91;95525.63;5012636;28;20056;-51
2022/05/04 06:18:54;;;;;;;10.65;9.05;;;16.30;66.30;;;11.36;82.72;95525.31;5046091;28;20030;-49
2022/05/04 06:21:20;;;;;;;15.50;9.82;;;16.50;65.90;;;11.55;82.32;95522.88;5029905;28;20025;-48
2022/05/04 06:23:45;;;;;;;10.48;8.75;;;16.60;66.00;;;11.67;81.46;95527.91;5026377;28;20439;-48
2022/05/04 06:26:11;;;;;;;11.50;9.25;;;16.80;65.00;;;11.75;79.78;95530.81;5018165;28;20038;-49
2022/05/04 06:28:37;;;;;;;11.50;8.77;;;16.90;64.60;;;11.89;79.91;95532.91;5023224;28;20060;-47
2022/05/04 06:34:08;;;;;;;10.30;8.73;;;17.10;63.70;;;12.26;78.71;95535.16;5032797;28;20048;-48
2022/05/04 06:36:39;;;;;;;10.68;8.18;;;17.30;63.30;;;12.43;77.73;95542.78;5032726;28;20036;-50
2022/05/04 06:39:10;;;;;;;9.98;8.27;;;17.40;62.90;;;12.59;76.69;95543.47;5032518;28;20044;-50
2022/05/04 06:41:40;;;;;;;10.70;8.68;;;17.50;62.60;;;12.68;76.80;95539.13;5014873;28;20029;-52
2022/05/04 06:44:14;;;;;;;9.30;7.22;;;17.60;62.20;;;12.91;75.84;95542.97;5014778;28;20035;-49
2022/05/04 06:46:43;;;;;;;8.52;7.45;;;17.80;61.80;;;13.01;73.99;95539.44;5014817;28;20120;-49
2022/05/04 06:49:10;;;;;;;8.93;7.47;;;17.90;61.40;;;13.25;74.05;95542.16;5032411;28;20025;-48
2022/05/04 06:51:43;;;;;;;8.85;7.47;;;18.20;61.00;;;13.54;73.17;95548.31;5031089;28;20128;-50
2022/05/04 06:54:09;;;;;;;8.85;6.90;;;18.50;60.40;;;13.86;72.05;95538.84;5032241;28;20040;-50
2022/05/04 06:56:44;;;;;;;8.23;6.53;;;18.80;60.10;;;14.24;70.07;95549.63;5031113;28;20033;-48
2022/05/04 06:59:09;;;;;;;7.35;6.28;;;19.30;59.20;;;14.55;68.53;95544.69;5032382;28;20508;-50
2022/05/04 07:01:38;;;;;;;6.80;5.93;;;19.60;58.80;;;14.79;67.71;95544.56;5014428;28;20038;-48
2022/05/04 07:04:04;;;;;;;7.72;6.38;;;19.80;58.20;;;14.95;66.99;95550.53;5024596;28;20430;-48
2022/05/04 07:06:29;;;;;;;7.38;6.32;;;20.00;58.00;;;15.12;65.91;95549.97;5032092;28;20109;-49
2022/05/04 07:09:04;;;;;;;7.82;6.32;;;20.30;57.30;;;15.29;65.22;95547.50;5032090;28;20072;-49
2022/05/04 07:11:39;;;;;;;6.07;5.43;;;20.60;56.60;;;15.60;63.90;95547.78;5015861;28;20025;-48
2022/05/04 07:14:14;;;;;;;9.48;6.13;;;21.00;55.60;;;15.80;62.42;95543.94;5011211;28;20029;-55
2022/05/04 07:16:40;;;;;;;10.57;5.93;;;21.40;54.90;;;16.17;61.67;95550.22;5010949;28;20493;-51
2022/05/04 07:19:06;;;;;;;10.50;6.20;;;21.70;54.50;;;16.34;60.97;95541.50;5013420;28;20030;-51
2022/05/04 07:21:31;;;;;;;7.78;5.85;;;21.90;53.90;;;16.53;60.51;95539.47;4999224;28;20076;-53
2022/05/04 07:24:00;;;;;;;6.63;5.57;;;22.20;53.30;;;16.70;59.64;95540.72;5016492;28;20076;-49
2022/05/04 07:26:25;;;;;;;7.88;6.07;;;22.50;52.40;;;16.99;59.29;95540.34;5016278;28;20044;-49
2022/05/04 07:28:54;;;;;;;6.85;5.25;;;22.80;52.00;;;17.32;58.10;95538.94;5014947;28;20030;-52
2022/05/04 07:31:25;;;;;;;6.57;5.25;;;23.20;51.20;;;17.76;55.96;95536.47;5016072;28;20037;-56
2022/05/04 07:33:54;;;;;;;6.18;4.72;;;23.50;50.30;;;18.12;54.70;95543.63;5014933;28;20508;-51
2022/05/04 07:36:20;;;;;;;5.68;4.95;;;23.90;49.60;;;18.45;53.79;95547.47;5016420;28;20026;-50
2022/05/04 07:38:48;;;;;;;5.90;5.20;;;24.20;48.90;;;18.76;52.89;95543.09;5014918;28;20068;-49
2022/05/04 07:43:59;;;;;;;7.00;5.68;;;24.90;47.10;;;18.88;51.72;95549.44;5015291;28;20068;-54
2022/05/04 07:46:28;;;;;;;6.72;5.40;;;25.20;46.30;;;18.87;51.18;95549.75;5016010;28;20030;-49
2022/05/04 07:48:55;;;;;;;7.47;5.38;;;25.40;45.20;;;18.99;52.55;95541.81;5015898;28;20104;-52
2022/05/04 07:51:21;;;;;;;5.63;4.97;;;25.60;44.90;;;19.42;51.16;95541.72;5014753;28;20052;-52
2022/05/04 07:53:53;;;;;;;6.38;5.00;;;25.90;44.40;;;19.77;48.82;95543.56;5014533;28;20034;-52
2022/05/04 07:56:19;;;;;;;7.50;5.30;;;26.30;43.30;;;20.19;46.97;95549.91;5015929;28;20036;-52
2022/05/04 07:58:48;;;;;;;5.40;4.90;;;26.60;43.50;;;20.22;46.94;95549.25;5014419;28;20505;-51
2022/05/04 08:04:20;;;;;;;9.07;4.95;;;27.00;41.50;;;20.69;46.49;95549.13;5020734;28;20522;-54
2022/05/04 08:06:46;;;;;;;5.85;5.32;;;27.20;40.90;;;20.72;44.51;95550.41;5034995;28;20033;-54
2022/05/04 08:09:16;;;;;;;6.25;5.65;;;27.40;39.80;;;20.79;44.98;95546.03;5032596;28;20496;-55
2022/05/04 08:11:43;;;;;;;7.18;6.05;;;27.60;39.00;;;20.53;44.35;95540.81;5014319;28;20036;-56
2022/05/04 08:14:10;;;;;;;6.15;5.53;;;27.80;37.90;;;20.68;44.95;95546.75;5015961;28;20021;-56
2022/05/04 08:16:40;;;;;;;7.55;6.22;;;27.70;37.40;;;20.92;44.58;95546.09;5014138;28;20061;-54
2022/05/04 08:19:08;;;;;;;6.95;5.45;;;27.80;37.20;;;21.21;43.86;95547.91;5014124;28;20033;-59
2022/05/04 08:21:37;;;;;;;7.97;5.95;;;27.80;37.20;;;21.39;44.70;95545.84;5023404;28;20071;-58
2022/05/04 08:24:04;;;;;;;7.05;6.15;;;27.90;37.30;;;21.26;43.64;95545.78;5015984;28;20088;-57
2022/05/04 08:26:30;;;;;;;7.95;6.47;;;28.10;36.80;;;21.37;43.08;95546.19;5014066;28;20496;-59
2022/05/04 08:28:55;;;;;;;7.50;6.70;;;28.20;36.30;;;21.21;43.43;95545.97;5015455;28;20037;-58
2022/05/04 08:31:22;;;;;;;8.75;6.50;;;28.40;36.00;;;21.20;43.65;95549.03;5013145;28;20036;-57
2022/05/04 08:33:51;;;;;;;7.35;6.40;;;28.50;35.60;;;21.31;44.54;95543.97;4997470;28;20025;-58
2022/05/04 08:36:17;;;;;;;8.15;6.63;;;28.70;35.20;;;21.78;44.05;95535.53;5013583;28;20080;-58
2022/05/04 08:38:43;;;;;;;7.55;6.43;;;28.90;35.40;;;22.02;42.23;95540.97;5017460;28;20022;-57
2022/05/04 08:41:09;;;;;;;7.18;6.18;;;29.20;35.00;;;22.45;41.91;95539.63;5013645;28;20477;-59
2022/05/04 08:43:39;;;;;;;7.40;6.70;;;29.50;34.70;;;22.53;40.98;95537.91;5013699;28;20038;-58
2022/05/04 08:46:05;;;;;;;10.00;6.80;;;29.70;34.00;;;22.91;40.68;95539.41;5013692;28;20507;-59
2022/05/04 08:48:32;;;;;;;9.93;7.78;;;29.90;33.70;;;22.92;39.53;95536.34;5013501;28;20558;-57
2022/05/04 08:51:04;;;;;;;8.38;7.53;;;30.20;33.20;;;23.19;39.88;95542.97;5029903;28;20030;-58
2022/05/04 08:53:31;;;;;;;7.90;6.78;;;30.20;32.90;;;22.97;40.54;95540.78;5014012;28;20033;-58
2022/05/04 08:56:00;;;;;;;8.45;7.45;;;30.20;32.70;;;23.01;40.45;95539.75;5013470;28;20034;-58
2022/05/04 08:58:26;;;;;;;7.95;7.20;;;30.30;32.50;;;22.79;40.93;95535.59;5029993;28;20030;-59
2022/05/04 09:00:55;;;;;;;8.02;7.22;;;30.40;32.00;;;23.04;41.28;95538.28;5012906;28;20378;-59
2022/05/04 09:03:23;;;;;;;8.60;7.80;;;30.40;31.90;;;23.19;40.36;95542.97;5014913;28;20037;-59
2022/05/04 09:05:54;;;;;;;9.68;7.85;;;30.50;31.90;;;23.22;40.91;95527.88;5023976;28;20037;-59
2022/05/04 09:08:20;;;;;;;10.45;7.82;;;30.60;31.70;;;23.66;40.25;95541.47;5027520;28;20021;-60
2022/05/04 09:10:46;;;;;;;9.20;7.85;;;30.70;31.90;;;23.60;39.86;95529.25;5031652;28;20026;-59
2022/05/04 09:13:12;;;;;;;12.90;8.13;;;30.80;31.40;;;23.63;38.53;95523.13;5033407;28;20591;-59
2022/05/04 09:15:40;;;;;;;9.25;8.18;;;30.90;31.10;;;23.53;38.84;95517.09;5029425;28;20030;-59
2022/05/04 09:18:09;;;;;;;8.38;7.57;;;31.00;30.80;;;23.99;38.69;95522.13;5014287;28;20039;-60
2022/05/04 09:20:57;;;;;;;8.23;7.43;;;31.10;30.80;;;24.05;38.34;95520.72;5028892;28;20075;-60
2022/05/04 09:23:29;;;;;;;10.05;8.23;;;31.30;30.50;;;24.51;37.30;95510.16;5019622;28;20106;-60
2022/05/04 09:26:02;;;;;;;9.77;8.80;;;31.50;30.40;;;24.43;37.05;95511.91;5031536;28;20509;-60
2022/05/04 09:28:29;;;;;;;;;;;31.80;30.00;;;24.60;37.36;95510.75;5030131;28;20069;-60
2022/05/04 09:31:05;;;;;;;8.70;7.80;;;31.80;30.60;;;24.92;36.40;95505.94;5024753;28;19921;-60
2022/05/04 09:33:35;;;;;;;8.07;7.28;;;32.20;30.00;;;24.94;36.82;95511.03;5027959;28;20029;-60
2022/05/04 09:36:05;;;;;;;7.13;6.32;;;32.40;29.70;;;24.47;35.41;95498.38;5030123;28;20034;-60
2022/05/04 09:46:53;;;;;;;6.30;5.28;;;32.70;27.80;;;24.85;34.48;95494.91;5012685;28;20113;-60
2022/05/04 09:49:21;;;;;;;5.20;4.80;;;32.80;27.60;;;25.32;33.75;95499.34;5022821;28;20516;-60
2022/05/04 09:51:56;;;;;;;6.63;5.00;;;32.90;27.60;;;25.36;33.00;95493.97;5017780;28;20029;-59
2022/05/04 09:54:25;;;;;;;8.68;4.90;;;33.00;27.20;;;25.74;33.59;95495.00;5005998;28;20030;-61
2022/05/04 09:57:03;;;;;;;6.70;5.22;;;33.10;27.30;;;25.39;32.43;95494.03;5012222;28;20034;-60
2022/05/04 09:59:38;;;;;;;8.00;5.32;;;33.20;26.70;;;25.56;32.85;95483.78;5013276;28;20119;-61
2022/05/04 10:02:13;;;;;;;7.35;5.40;;;33.30;26.80;;;25.28;34.35;95487.56;4998952;28;20372;-60
2022/05/04 10:04:39;;;;;;;5.53;4.97;;;33.40;26.60;;;25.51;33.35;95484.91;5031636;28;20427;-60
2022/05/04 10:07:11;;;;;;;5.80;5.22;;;33.50;26.50;;;25.76;33.17;95485.31;5015351;28;20033;-60
2022/05/04 10:09:36;;;;;;;6.55;5.97;;;33.60;26.30;;;25.83;33.43;95484.69;5017906;28;20025;-61
2022/05/04 10:12:12;;;;;;;6.43;5.82;;;33.70;26.30;;;25.83;32.63;95482.72;5030873;28;20488;-60
2022/05/04 10:14:43;;;;;;;8.80;6.13;;;33.80;26.10;;;26.06;32.85;95479.97;4995908;28;20022;-61
2022/05/04 10:17:24;;;;;;;6.07;5.38;;;34.00;26.10;;;26.57;33.28;95475.25;5013114;28;20080;-61
2022/05/04 10:20:31;;;;;;;7.95;5.85;;;34.10;26.30;;;26.78;32.58;95475.53;5011923;28;20022;-61
2022/05/04 10:23:24;;;;;;;5.47;4.97;;;34.30;26.20;;;27.15;30.75;95472.09;4984832;28;20042;-60
2022/05/04 10:25:50;;;;;;;6.20;5.55;;;34.60;25.90;;;27.26;31.48;95464.00;5011921;28;20029;-61
2022/05/04 10:28:17;;;;;;;5.70;5.13;;;34.80;25.70;;;27.06;30.51;95464.16;5011741;28;20572;-61
2022/05/04 10:31:06;;;;;;;7.43;5.30;;;34.90;25.20;;;27.38;29.99;95461.00;5016490;28;20029;-61
2022/05/04 10:33:43;;;;;;;5.00;4.60;;;35.00;24.90;;;27.37;29.22;95462.16;5031460;28;20029;-61
2022/05/04 10:36:29;;;;;;;5.20;4.70;;;35.30;24.40;;;27.72;28.29;95449.97;5032643;28;20022;-60
2022/05/04 10:38:58;;;;;;;6.22;5.68;;;35.40;24.10;;;27.73;28.08;95457.00;5031317;28;20500;-60
2022/05/04 10:41:38;;;;;;;7.38;4.93;;;35.50;23.80;;;27.36;29.59;95455.91;5031196;28;20116;-61
2022/05/04 10:44:09;;;;;;;5.22;4.82;;;35.60;23.40;;;27.28;29.14;95453.47;5030073;28;20663;-60
2022/05/04 10:46:41;;;;;;;4.43;4.03;;;35.50;23.30;;;26.75;29.17;95440.75;5027224;28;20033;-60
2022/05/04 10:49:13;;;;;;;5.95;5.35;;;34.80;23.40;;;26.57;29.07;95451.44;5013728;28;20032;-61
2022/05/04 10:51:42;;;;;;;7.43;5.47;;;34.60;24.00;;;26.83;27.86;95442.44;5029243;28;20489;-60
2022/05/04 10:54:18;;;;;;;6.25;5.68;;;34.70;23.50;;;26.89;28.07;95451.06;5026256;28;20026;-60